Hlavní strana
METAR-TAF:

METAR-TAF

Letiště :

Mezinárodní letiště Hámida Karzaje

Kábul, Afghánistán

zeměpisná šířka: 34-38N, zeměpisná délka: 069-12E, výška: 1789 m

Aktuální stav počasí

Zpráva byla vytvořena před 1 hodinou a 56 minutami, v 22:50 UTC
Severozápadní vítr 2 kt
Teplota 6°C
Vlhkost vzduchu 65%
Tlak 1026 hPa
Viditelnost: 8000 m

METAR: OAKB 192250Z 31002KT 8000 NSC 06/00 Q1026 NOSIG RMK A3030 BLU BLU

Čas: 05:16 (00:46 UTC)

Předpověď počasí

Zpráva byla vytvořena před 1 hodinou a 41 minutami, v 23:05 UTC
Předpověď platná od 20 v 00 UTC do 20 v 24 UTC
vítr z různých směrů 2 kt
Viditelnost 10 km a více
Skoro jasno ve výšce 10000 ft
Dočasný
od 20 v 01 UTC do 20 v 05 UTC
Viditelnost: 5000 m
kouř
Změna
od 20 v 15 UTC do 20 v 17 UTC
Viditelnost 10 km a více
Žádná oblačnost pod 1500 m, nevyskytují se cumulonimby.

TAF: OAKB 192305Z 2000/2024 VRB02KT 9999 FEW100 TEMPO 2001/2005 5000 FU BECMG 2015/2017 CAVOK

Stav a předpovědi počasí z více než 4 000 letišť (zprávy METAR a TAF).

Červené a žluté tečky na mapě představují dostupné meteorologické stanice.

Když kurzor umístíte na tečku, zobrazí se název stanice.

Pak kliknutím zobrazíte stav a předpověď počasí.

Chcete-li změnit mapu, kliknutím na zelené tlačítko se znaménkem +mapu přiblížíte, kliknutím na zelené tlačítko se znaménkem – mapu oddálíte a kliknutím na zelené šipky přejdete na sousední mapy.


METAR-TAF: